Time;durP1;ratioP1;P1;durP2;ratioP2;P2;SDS_P1;SDS_P2;PMS_P1;PMS_P2;Temp;Humidity;BMP_temperature;BMP_pressure;BME280_temperature;BME280_humidity;BME280_pressure;Samples;Min_cycle;Max_cycle;Signal;HPM_P1;HPM_P2
2023/01/31 00:01:23;;;;;;;10.23;6.57;;;;;;;3.16;70.53;100715.16;4912598;29;20289;-82
2023/01/31 00:03:52;;;;;;;9.38;6.07;;;;;;;3.10;70.70;100704.84;4911873;29;20462;-81
2023/01/31 00:06:22;;;;;;;7.53;4.95;;;;;;;3.02;70.56;100719.69;4911682;29;20189;-81
2023/01/31 00:08:57;;;;;;;11.57;5.13;;;;;;;2.96;70.58;100714.59;4908890;29;20197;-82
2023/01/31 00:11:30;;;;;;;8.95;4.65;;;;;;;2.90;70.92;100714.69;4910941;29;20198;-82
2023/01/31 00:13:58;;;;;;;13.35;6.43;;;;;;;2.84;70.67;100711.28;4909335;29;20242;-82
2023/01/31 00:16:23;;;;;;;8.68;5.55;;;;;;;2.81;70.92;100706.16;4908756;29;20206;-82
2023/01/31 00:18:49;;;;;;;8.33;5.07;;;;;;;2.79;71.28;100707.91;4910978;29;20193;-82
2023/01/31 00:21:21;;;;;;;5.90;5.03;;;;;;;2.77;70.75;100703.59;4909564;29;20225;-82
2023/01/31 00:23:47;;;;;;;7.00;5.10;;;;;;;2.76;71.01;100697.56;4913263;29;20236;-82
2023/01/31 00:26:20;;;;;;;9.20;5.28;;;;;;;2.76;70.70;100696.72;4912115;29;20186;-82
2023/01/31 00:28:48;;;;;;;8.70;5.53;;;;;;;2.75;70.78;100700.16;4913570;29;20201;-82
2023/01/31 00:31:15;;;;;;;11.05;7.30;;;;;;;2.73;70.49;100701.91;4913687;29;20262;-82
2023/01/31 00:33:42;;;;;;;10.32;5.63;;;;;;;2.70;70.55;100692.47;4909997;29;20221;-82
2023/01/31 00:36:11;;;;;;;7.25;4.97;;;;;;;2.67;70.72;100689.91;4912250;29;20207;-83
2023/01/31 00:38:37;;;;;;;12.77;7.15;;;;;;;2.66;70.76;100695.97;4915025;29;20225;-82
2023/01/31 00:41:03;;;;;;;12.40;6.57;;;;;;;2.63;70.82;100699.47;4915194;29;20289;-82
2023/01/31 00:43:30;;;;;;;9.77;5.95;;;;;;;2.59;70.78;100700.41;4913669;29;20221;-82
2023/01/31 00:45:56;;;;;;;6.97;4.78;;;;;;;2.55;70.79;100698.72;4914838;29;20194;-81
2023/01/31 00:48:23;;;;;;;9.32;5.30;;;;;;;2.52;70.62;100706.53;4929809;29;20864;-82
2023/01/31 00:50:48;;;;;;;10.30;5.27;;;;;;;2.45;70.63;100697.09;4916097;29;20191;-82
2023/01/31 00:53:16;;;;;;;9.40;4.77;;;;;;;2.40;70.70;100694.59;4913084;29;20473;-82
2023/01/31 00:55:42;;;;;;;9.68;5.05;;;;;;;2.35;70.59;100696.38;4930248;29;20218;-82
2023/01/31 00:58:07;;;;;;;7.27;5.97;;;;;;;2.29;70.67;100693.00;4916355;29;20183;-83
2023/01/31 01:00:32;;;;;;;13.30;5.97;;;;;;;2.25;70.66;100683.56;4915338;29;20190;-82
2023/01/31 01:02:58;;;;;;;6.57;4.93;;;;;;;2.21;70.91;100695.69;4914643;29;20197;-82
2023/01/31 01:05:23;;;;;;;8.10;5.97;;;;;;;2.16;71.06;100687.97;4916069;29;20186;-82
2023/01/31 01:07:49;;;;;;;8.83;5.53;;;;;;;2.14;70.98;100686.28;4915254;29;20713;-82
2023/01/31 01:10:15;;;;;;;9.90;5.90;;;;;;;2.13;70.76;100684.53;4931285;29;20189;-82
2023/01/31 01:12:40;;;;;;;10.13;6.20;;;;;;;2.12;70.98;100682.84;4918127;29;20199;-82
2023/01/31 01:15:06;;;;;;;8.17;4.23;;;;;;;2.11;70.79;100678.53;4931873;29;20223;-81
2023/01/31 01:17:32;;;;;;;7.33;5.60;;;;;;;2.06;70.48;100673.41;4914862;29;20290;-82
2023/01/31 01:20:02;;;;;;;10.27;5.13;;;;;;;2.05;70.87;100681.19;4929927;29;20454;-82
2023/01/31 01:22:27;;;;;;;11.23;5.65;;;;;;;2.04;70.96;100674.28;4918795;29;20187;-82
2023/01/31 01:24:53;;;;;;;7.63;5.17;;;;;;;2.02;70.99;100678.63;4914765;29;20191;-82
2023/01/31 01:27:19;;;;;;;8.57;4.90;;;;;;;1.94;70.79;100689.94;4911920;29;20194;-82
2023/01/31 01:29:44;;;;;;;8.05;5.30;;;;;;;1.87;70.58;100683.13;4911763;29;20195;-82
2023/01/31 01:32:09;;;;;;;5.50;4.93;;;;;;;1.76;70.93;100679.78;4910737;29;21592;-81
2023/01/31 01:34:38;;;;;;;8.37;5.00;;;;;;;1.65;71.27;100681.63;4914378;23;21472;-91
2023/01/31 01:37:18;;;;;;;8.50;5.85;;;;;;;1.52;71.92;100676.56;4878531;29;20235;-89
2023/01/31 01:40:00;;;;;;;7.72;5.65;;;;;;;1.41;72.07;100687.91;4888860;29;20721;-91
2023/01/31 01:42:38;;;;;;;8.15;6.35;;;;;;;1.37;72.38;100689.63;4891932;29;20240;-89
2023/01/31 01:45:17;;;;;;;9.82;5.72;;;;;;;1.30;72.69;100687.97;4889597;29;20273;-90
2023/01/31 01:47:52;;;;;;;9.23;6.13;;;;;;;1.23;73.04;100686.31;4903538;29;20254;-88
2023/01/31 01:50:48;;;;;;;;;;;;;;;;;;;;;
2023/01/31 01:53:29;;;;;;;12.35;6.57;;;;;;;1.23;72.91;100683.72;4889693;29;20711;-90
2023/01/31 01:56:37;;;;;;;;;;;;;;;;;;;;;
2023/01/31 01:59:15;;;;;;;5.88;4.45;;;;;;;1.32;72.87;100679.34;4880115;29;20199;-89
2023/01/31 02:01:49;;;;;;;8.75;5.93;;;;;;;1.34;72.66;100694.84;4902934;29;20267;-89
2023/01/31 02:04:27;;;;;;;10.23;5.93;;;;;;;1.34;72.50;100702.59;4887801;29;20202;-88
2023/01/31 02:06:59;;;;;;;9.18;5.75;;;;;;;1.35;72.43;100701.75;4892417;29;20193;-90
2023/01/31 02:09:47;;;;;;;7.03;5.40;;;;;;;1.36;72.53;100692.25;4883834;29;20895;-91
2023/01/31 02:12:29;;;;;;;7.88;5.65;;;;;;;1.36;72.40;100693.09;4884325;29;20244;-90
2023/01/31 02:14:59;;;;;;;9.43;5.55;;;;;;;1.37;72.67;100687.03;4897350;29;20223;-89
2023/01/31 02:17:37;;;;;;;7.72;5.40;;;;;;;1.39;72.46;100677.53;4901129;29;20246;-91
2023/01/31 02:20:26;;;;;;;;;;;;;;;;;;;;;
2023/01/31 02:23:39;;;;;;;6.05;4.75;;;;;;;1.43;72.39;100680.94;4883820;29;20203;-90
2023/01/31 02:26:23;;;;;;;6.35;4.20;;;;;;;1.45;72.30;100677.47;4894772;29;20375;-88
2023/01/31 02:29:13;;;;;;;5.18;3.95;;;;;;;1.41;72.59;100668.03;4867958;29;20223;-89
2023/01/31 02:32:09;;;;;;;8.20;4.80;;;;;;;1.37;72.65;100681.00;4863679;29;20211;-89
2023/01/31 02:34:50;;;;;;;9.30;5.50;;;;;;;1.31;72.63;100687.94;4863942;29;20236;-90
2023/01/31 02:37:35;;;;;;;9.57;6.22;;;;;;;1.28;72.70;100685.41;4880665;29;20204;-90
2023/01/31 02:40:15;;;;;;;8.88;5.25;;;;;;;1.27;72.70;100678.50;4877253;29;20636;-90
2023/01/31 02:43:01;;;;;;;7.35;5.13;;;;;;;1.27;72.95;100685.41;4863156;29;20961;-89
2023/01/31 02:45:47;;;;;;;8.27;5.47;;;;;;;1.26;72.73;100681.09;4881360;29;20195;-89
2023/01/31 02:48:13;;;;;;;8.60;5.43;;;;;;;1.26;72.55;100694.03;4881114;29;20188;-89
2023/01/31 02:51:03;;;;;;;;;;;;;;;;;;;;;
2023/01/31 02:53:56;;;;;;;10.10;5.45;;;;;;;1.24;72.69;100707.00;4864805;29;20231;-88
2023/01/31 02:56:28;;;;;;;6.13;3.78;;;;;;;1.25;72.68;100705.28;4878230;29;20219;-88
2023/01/31 02:59:26;;;;;;;5.25;4.13;;;;;;;1.20;72.48;100709.63;4880215;29;20214;-88
2023/01/31 03:02:00;;;;;;;8.10;5.05;;;;;;;1.16;72.67;100708.81;4882988;29;20302;-90
2023/01/31 03:04:31;;;;;;;8.95;5.50;;;;;;;1.13;72.86;100695.00;4876766;29;20217;-88
2023/01/31 03:07:04;;;;;;;7.03;4.65;;;;;;;1.13;72.40;100692.41;4869802;29;20183;-89
2023/01/31 03:09:40;;;;;;;5.70;4.55;;;;;;;1.07;72.83;100694.19;4865309;29;20187;-89
2023/01/31 03:12:48;;;;;;;9.15;5.50;;;;;;;1.04;72.89;100701.97;4885166;29;20276;-88
2023/01/31 03:18:45;;;;;;;6.93;4.60;;;;;;;1.00;72.58;100710.63;4881482;29;20208;-87
2023/01/31 03:21:26;;;;;;;7.70;5.43;;;;;;;0.99;72.56;100710.63;4881885;29;20199;-89
2023/01/31 03:24:04;;;;;;;9.23;4.57;;;;;;;0.98;72.66;100708.94;4868973;29;20218;-89
2023/01/31 03:26:30;;;;;;;4.68;3.50;;;;;;;0.97;72.73;100702.88;4874924;29;20673;-88
2023/01/31 03:29:02;;;;;;;7.50;4.93;;;;;;;0.97;72.74;100715.81;4890245;29;20203;-89
2023/01/31 03:31:37;;;;;;;6.18;5.22;;;;;;;0.96;72.78;100708.91;4882619;29;20214;-88
2023/01/31 03:34:10;;;;;;;5.85;4.22;;;;;;;0.93;72.81;100721.88;4870331;29;20194;-89
2023/01/31 03:37:03;;;;;;;6.20;3.83;;;;;;;0.94;72.84;100715.81;4864779;29;20215;-89
2023/01/31 03:40:02;;;;;;;5.80;3.75;;;;;;;0.94;72.89;100718.41;4888658;29;20262;-90
2023/01/31 03:42:58;;;;;;;4.85;4.35;;;;;;;0.95;72.61;100725.31;4867051;29;20215;-90
2023/01/31 03:45:40;;;;;;;6.63;4.38;;;;;;;0.91;72.69;100715.84;4873446;29;20439;-90
2023/01/31 03:48:13;;;;;;;8.73;4.30;;;;;;;0.83;72.72;100715.03;4872026;29;20223;-88
2023/01/31 03:50:54;;;;;;;5.50;4.45;;;;;;;0.74;72.75;100705.63;4872889;29;20190;-89
2023/01/31 03:53:32;;;;;;;4.93;4.43;;;;;;;0.69;73.03;100709.09;4879192;29;20217;-89
2023/01/31 03:56:21;;;;;;;7.13;4.00;;;;;;;0.65;73.08;100705.69;4892715;29;20632;-89
2023/01/31 03:58:52;;;;;;;7.65;5.15;;;;;;;0.61;73.03;100709.13;4891057;29;20210;-90
2023/01/31 04:01:22;;;;;;;6.43;4.55;;;;;;;0.58;73.13;100699.66;4880496;29;20192;-89
2023/01/31 04:03:55;;;;;;;5.70;4.20;;;;;;;0.58;73.33;100694.50;4872385;29;20279;-88
2023/01/31 04:06:20;;;;;;;7.65;5.13;;;;;;;0.58;73.22;100694.50;4868480;29;20211;-88
2023/01/31 04:08:49;;;;;;;7.63;3.90;;;;;;;0.57;73.23;100692.78;4866756;29;20180;-88
2023/01/31 04:11:19;;;;;;;5.68;4.25;;;;;;;0.56;73.30;100685.03;4865376;29;20435;-87
2023/01/31 04:13:44;;;;;;;7.05;4.60;;;;;;;0.52;73.30;100684.19;4867637;29;20276;-89
2023/01/31 04:16:13;;;;;;;9.30;6.03;;;;;;;0.51;73.11;100695.38;4864718;29;20227;-89
2023/01/31 04:18:45;;;;;;;5.47;4.55;;;;;;;0.53;73.46;100687.63;4863335;29;20222;-89
2023/01/31 04:21:15;;;;;;;8.40;5.73;;;;;;;0.53;73.25;100704.00;4865168;29;20293;-90
2023/01/31 04:23:40;;;;;;;10.73;4.60;;;;;;;0.54;73.24;100708.31;4865462;29;20457;-89
2023/01/31 04:26:06;;;;;;;6.23;4.60;;;;;;;0.54;73.23;100710.91;4875027;29;20226;-91
2023/01/31 04:28:33;;;;;;;5.93;4.90;;;;;;;0.53;73.50;100719.50;4870737;29;20224;-89
2023/01/31 04:31:01;;;;;;;6.22;3.63;;;;;;;0.53;73.02;100726.41;4878879;29;20919;-89
2023/01/31 04:33:27;;;;;;;7.33;4.20;;;;;;;0.50;72.96;100722.13;4880478;29;20282;-88
2023/01/31 04:35:52;;;;;;;6.70;4.27;;;;;;;0.47;73.24;100721.28;4874524;29;20310;-88
2023/01/31 04:38:23;;;;;;;4.63;3.93;;;;;;;0.44;73.09;100723.00;4862921;29;20255;-88
2023/01/31 04:40:59;;;;;;;4.25;3.85;;;;;;;0.41;73.23;100723.03;4858734;29;20204;-88
2023/01/31 04:43:24;;;;;;;4.47;2.97;;;;;;;0.36;73.03;100729.06;4861619;29;20196;-88
2023/01/31 04:45:53;;;;;;;6.00;3.60;;;;;;;0.28;73.12;100726.50;4858126;29;20975;-88
2023/01/31 04:48:29;;;;;;;9.45;4.50;;;;;;;0.25;73.48;100738.59;4861976;29;20194;-90
2023/01/31 04:50:54;;;;;;;10.30;3.83;;;;;;;0.21;73.02;100732.56;4863457;29;20629;-89
2023/01/31 04:53:27;;;;;;;7.90;5.15;;;;;;;0.19;73.50;100735.16;4865430;29;20537;-88
2023/01/31 04:55:54;;;;;;;7.70;3.90;;;;;;;0.18;73.36;100730.00;4865821;29;20219;-88
2023/01/31 04:58:27;;;;;;;4.32;3.53;;;;;;;0.13;73.41;100735.16;4864909;29;20455;-88
2023/01/31 05:01:04;;;;;;;6.10;3.55;;;;;;;0.09;73.38;100735.19;4860778;29;20214;-88
2023/01/31 05:03:42;;;;;;;;;;;;;;;;;;;;;
2023/01/31 05:06:13;;;;;;;5.60;3.90;;;;;;;0.01;73.32;100731.78;4865589;29;20210;-87
2023/01/31 05:08:51;;;;;;;6.85;4.00;;;;;;;0.00;73.52;100736.09;4862197;29;20206;-89
2023/01/31 05:11:17;;;;;;;7.20;4.85;;;;;;;0.02;73.62;100736.91;4862782;29;20203;-88
2023/01/31 05:13:47;;;;;;;5.28;4.30;;;;;;;0.06;73.57;100732.63;4884156;29;20277;-89
2023/01/31 05:16:21;;;;;;;10.63;6.18;;;;;;;0.08;73.46;100734.34;4870143;29;20251;-87
2023/01/31 05:18:52;;;;;;;4.75;4.13;;;;;;;0.10;73.51;100735.16;4867280;29;20601;-88
2023/01/31 05:21:33;;;;;;;;;;;;;;;;;;;;;
2023/01/31 05:24:02;;;;;;;5.70;4.22;;;;;;;0.08;73.03;100723.13;4863304;29;20231;-88
2023/01/31 05:26:43;;;;;;;;;;;;;;;;;;;;;
2023/01/31 05:29:08;;;;;;;8.20;4.38;;;;;;;0.04;72.98;100727.44;4880326;29;20203;-88
2023/01/31 05:31:55;;;;;;;7.32;4.80;;;;;;;0.00;73.29;100715.41;4867242;29;20198;-87
2023/01/31 05:34:31;;;;;;;8.88;6.57;;;;;;;-0.02;73.32;100718.00;4864283;29;20444;-87
2023/01/31 05:37:12;;;;;;;10.10;6.05;;;;;;;-0.03;73.53;100723.16;4856911;29;20566;-85
2023/01/31 05:39:37;;;;;;;8.23;4.88;;;;;;;-0.11;73.32;100725.78;4869794;29;20395;-85
2023/01/31 05:42:05;;;;;;;7.57;5.67;;;;;;;-0.19;73.36;100729.22;4867282;29;20202;-84
2023/01/31 05:44:33;;;;;;;6.00;4.32;;;;;;;-0.27;73.41;100717.19;4873866;29;20187;-85
2023/01/31 05:47:02;;;;;;;11.90;5.33;;;;;;;-0.28;73.63;100717.19;4879341;29;20728;-85
2023/01/31 05:49:32;;;;;;;9.57;5.68;;;;;;;-0.27;73.67;100729.22;4873754;29;20215;-85
2023/01/31 05:52:07;;;;;;;10.82;5.45;;;;;;;-0.25;73.82;100724.91;4882799;29;20207;-86
2023/01/31 05:54:43;;;;;;;6.45;5.03;;;;;;;-0.23;73.47;100729.22;4884339;29;20203;-86
2023/01/31 05:57:30;;;;;;;7.57;5.38;;;;;;;-0.20;73.47;100733.53;4884550;29;20190;-85
2023/01/31 06:00:11;;;;;;;7.82;4.60;;;;;;;-0.17;73.34;100735.25;4880404;29;20255;-86
2023/01/31 06:02:47;;;;;;;7.47;4.97;;;;;;;-0.18;73.29;100739.56;4882411;29;20677;-86
2023/01/31 06:05:13;;;;;;;6.53;3.63;;;;;;;-0.19;73.25;100744.69;4876182;29;20800;-86
2023/01/31 06:07:51;;;;;;;7.30;5.38;;;;;;;-0.21;73.28;100746.44;4887641;29;20278;-87
2023/01/31 06:10:19;;;;;;;9.00;7.03;;;;;;;-0.21;73.43;100755.06;4868579;29;20277;-86
2023/01/31 06:12:45;;;;;;;8.53;6.80;;;;;;;-0.23;73.42;100754.19;4873136;29;20266;-86
2023/01/31 06:15:10;;;;;;;9.67;6.90;;;;;;;-0.24;73.36;100758.50;4870717;29;20215;-86
2023/01/31 06:17:38;;;;;;;9.67;6.60;;;;;;;-0.27;73.37;100758.50;4866924;29;20559;-86
2023/01/31 06:20:15;;;;;;;6.10;5.25;;;;;;;-0.29;73.13;100765.38;4883410;29;20191;-86
2023/01/31 06:22:41;;;;;;;6.75;5.53;;;;;;;-0.29;73.41;100769.69;4870914;29;20258;-85
2023/01/31 06:25:07;;;;;;;6.40;5.30;;;;;;;-0.30;73.57;100773.13;4870231;29;21305;-86
2023/01/31 06:27:33;;;;;;;9.90;5.57;;;;;;;-0.30;73.19;100768.84;4871264;29;20195;-86
2023/01/31 06:29:59;;;;;;;10.63;6.43;;;;;;;-0.31;73.58;100772.25;4871598;29;21041;-87
2023/01/31 06:32:24;;;;;;;9.93;7.07;;;;;;;-0.32;73.21;100773.13;4868297;29;20630;-86
2023/01/31 06:34:52;;;;;;;14.63;8.63;;;;;;;-0.33;73.03;100773.13;4867347;29;20246;-86
2023/01/31 06:37:29;;;;;;;8.10;5.90;;;;;;;-0.38;73.12;100773.13;4868484;29;20183;-87
2023/01/31 06:39:58;;;;;;;13.40;8.65;;;;;;;-0.41;73.18;100772.25;4866251;29;20196;-86
2023/01/31 06:42:24;;;;;;;12.35;7.00;;;;;;;-0.45;73.21;100758.50;4869104;29;20206;-85
2023/01/31 06:44:49;;;;;;;6.13;4.50;;;;;;;-0.47;73.43;100763.66;4872214;29;20240;-86
2023/01/31 06:47:18;;;;;;;9.97;6.17;;;;;;;-0.47;73.46;100773.97;4864305;29;20242;-86
2023/01/31 06:49:54;;;;;;;8.02;5.05;;;;;;;-0.45;73.24;100776.56;4871410;29;20856;-85
2023/01/31 06:52:43;;;;;;;9.10;6.80;;;;;;;-0.46;73.66;100773.13;4869619;29;20210;-87
2023/01/31 06:55:11;;;;;;;9.57;7.00;;;;;;;-0.43;73.84;100777.44;4863317;29;20242;-85
2023/01/31 06:57:47;;;;;;;8.45;6.30;;;;;;;-0.43;73.64;100774.88;4871103;29;20183;-86
2023/01/31 07:00:23;;;;;;;9.10;5.50;;;;;;;-0.41;73.79;100780.00;4868797;29;21412;-86
2023/01/31 07:02:49;;;;;;;7.43;5.38;;;;;;;-0.40;73.57;100771.41;4866674;29;20311;-86
2023/01/31 07:05:32;;;;;;;7.17;4.60;;;;;;;-0.41;74.12;100769.69;4871158;29;20275;-86
2023/01/31 07:08:12;;;;;;;8.27;5.53;;;;;;;-0.42;74.06;100783.47;4874284;29;20255;-86
2023/01/31 07:10:47;;;;;;;8.80;6.15;;;;;;;-0.41;74.16;100772.25;4873180;29;20256;-85
2023/01/31 07:17:13;;;;;;;6.45;4.85;;;;;;;-0.34;73.80;100776.56;4889409;29;20210;-84
2023/01/31 07:19:51;;;;;;;9.75;6.00;;;;;;;-0.32;73.70;100775.72;4886776;29;21047;-86
2023/01/31 07:22:23;;;;;;;6.25;5.28;;;;;;;-0.25;73.82;100780.00;4884321;29;20286;-85
2023/01/31 07:24:49;;;;;;;6.53;4.13;;;;;;;-0.17;73.53;100779.13;4880204;29;20230;-87
2023/01/31 07:27:17;;;;;;;6.97;4.50;;;;;;;-0.13;73.78;100763.66;4880233;29;20195;-85
2023/01/31 07:30:01;;;;;;;10.25;5.95;;;;;;;-0.07;73.76;100781.72;4882794;29;20199;-86
2023/01/31 07:32:39;;;;;;;6.28;5.68;;;;;;;0.01;73.43;100779.13;4883016;29;20195;-87
2023/01/31 07:35:07;;;;;;;7.53;5.97;;;;;;;0.07;73.50;100781.69;4887239;29;20654;-85
2023/01/31 07:37:33;;;;;;;8.18;6.18;;;;;;;0.16;73.51;100783.38;4886593;29;20282;-86
2023/01/31 07:39:58;;;;;;;8.83;5.90;;;;;;;0.26;73.21;100785.09;4884615;29;20286;-84
2023/01/31 07:42:27;;;;;;;10.30;6.20;;;;;;;0.37;73.17;100791.06;4892498;29;20195;-86
2023/01/31 07:44:53;;;;;;;8.35;6.20;;;;;;;0.50;73.09;100789.31;4901300;29;20511;-85
2023/01/31 07:47:28;;;;;;;7.82;5.63;;;;;;;0.64;72.61;100787.53;4898739;29;20628;-86
2023/01/31 07:49:56;;;;;;;14.30;7.67;;;;;;;0.80;72.35;100795.25;4892902;29;21192;-86
2023/01/31 07:52:24;;;;;;;11.60;8.85;;;;;;;0.92;72.36;100784.84;4894212;29;20183;-87
2023/01/31 07:54:49;;;;;;;10.23;7.70;;;;;;;1.01;71.95;100774.44;4899493;29;20292;-86
2023/01/31 07:57:18;;;;;;;9.40;6.90;;;;;;;1.10;71.95;100776.94;4927766;23;20229;-82
2023/01/31 07:59:44;;;;;;;13.88;8.13;;;;;;;1.16;72.14;100780.38;4932962;28;20189;-83
2023/01/31 08:04:58;;;;;;;9.15;8.20;;;;;;;1.27;72.10;100794.09;4937065;29;21080;-82
2023/01/31 08:07:25;;;;;;;9.17;7.43;;;;;;;1.31;71.71;100790.63;4933623;29;20219;-81
2023/01/31 08:09:51;;;;;;;8.45;7.15;;;;;;;1.37;71.74;100794.91;4928209;28;20194;-83
2023/01/31 08:12:16;;;;;;;11.07;8.60;;;;;;;1.39;71.80;100798.34;4931311;29;20197;-81
2023/01/31 08:14:42;;;;;;;9.50;6.37;;;;;;;1.39;72.09;100798.34;4936671;28;20232;-82
2023/01/31 08:17:08;;;;;;;11.60;6.20;;;;;;;1.42;72.19;100799.19;4933174;29;20185;-83
2023/01/31 08:19:34;;;;;;;10.57;5.70;;;;;;;1.44;72.29;100802.63;4936210;28;20410;-82
2023/01/31 08:22:00;;;;;;;10.07;7.47;;;;;;;1.49;72.64;100805.19;4934874;29;20450;-81
2023/01/31 08:24:26;;;;;;;8.68;5.35;;;;;;;1.52;72.86;100795.66;4933370;28;20276;-84
2023/01/31 08:26:51;;;;;;;11.50;6.43;;;;;;;1.57;73.00;100793.03;4933996;28;20448;-81
2023/01/31 08:29:17;;;;;;;8.57;6.00;;;;;;;1.61;72.84;100783.50;4932019;29;20201;-81
2023/01/31 08:31:43;;;;;;;6.37;5.30;;;;;;;1.67;72.95;100791.22;4935487;28;20204;-81
2023/01/31 08:34:08;;;;;;;9.80;6.10;;;;;;;1.74;72.82;100790.31;4952584;28;20189;-81
2023/01/31 08:36:34;;;;;;;13.23;11.30;;;;;;;1.81;72.72;100786.81;4936154;28;20205;-81
2023/01/31 08:39:00;;;;;;;12.38;6.88;;;;;;;1.85;72.93;100787.63;4937820;28;20193;-81
2023/01/31 08:41:27;;;;;;;10.50;6.47;;;;;;;1.90;72.82;100784.13;4933463;29;20334;-84
2023/01/31 08:43:54;;;;;;;13.55;8.05;;;;;;;1.96;72.83;100785.78;4933816;28;20205;-81
2023/01/31 08:46:20;;;;;;;10.68;5.65;;;;;;;2.03;73.11;100776.25;4936484;29;20290;-81
2023/01/31 08:48:46;;;;;;;12.75;7.50;;;;;;;2.07;73.00;100781.34;4944758;28;20193;-82
2023/01/31 08:51:12;;;;;;;11.60;8.10;;;;;;;2.14;72.87;100792.53;4939296;28;20200;-82
2023/01/31 08:53:43;;;;;;;11.05;7.50;;;;;;;2.23;72.87;100782.06;4935530;29;20189;-82
2023/01/31 08:56:09;;;;;;;11.50;6.57;;;;;;;2.35;72.24;100786.25;4937760;29;20705;-81
2023/01/31 08:58:40;;;;;;;9.35;6.70;;;;;;;2.49;72.50;100793.91;4940058;29;20234;-83
2023/01/31 09:01:09;;;;;;;10.15;6.75;;;;;;;2.62;71.94;100782.50;4942391;29;20182;-83
2023/01/31 09:03:35;;;;;;;11.50;7.22;;;;;;;2.93;72.13;100790.75;4943210;28;20205;-81
2023/01/31 09:06:03;;;;;;;9.57;5.75;;;;;;;3.78;70.99;100790.34;4936514;28;20269;-81
2023/01/31 09:08:29;;;;;;;11.23;6.93;;;;;;;4.97;68.73;100776.78;4938275;29;20753;-83
2023/01/31 09:10:57;;;;;;;14.90;7.67;;;;;;;6.22;65.43;100771.19;4940562;28;20805;-81
2023/01/31 09:13:23;;;;;;;10.32;5.80;;;;;;;7.24;62.39;100769.94;4934572;28;20964;-82
2023/01/31 09:15:58;;;;;;;10.05;7.70;;;;;;;7.79;58.42;100762.06;4940427;29;20457;-82
2023/01/31 09:18:23;;;;;;;12.33;8.70;;;;;;;7.97;57.65;100758.81;4936711;29;20656;-83
2023/01/31 09:20:49;;;;;;;12.10;7.90;;;;;;;8.42;55.81;100758.13;4939185;29;20409;-81
2023/01/31 09:23:14;;;;;;;12.10;8.07;;;;;;;9.12;53.78;100748.53;4958146;28;20441;-82
2023/01/31 09:25:46;;;;;;;14.33;8.87;;;;;;;9.78;51.79;100744.06;4965921;28;20466;-82
2023/01/31 09:28:12;;;;;;;14.30;9.60;;;;;;;10.15;50.28;100748.59;4955579;28;20431;-84
2023/01/31 09:30:37;;;;;;;11.90;8.60;;;;;;;10.32;49.60;100739.16;4942513;28;20452;-83
2023/01/31 09:33:02;;;;;;;10.60;9.37;;;;;;;10.54;48.57;100736.44;4947679;28;20436;-81
2023/01/31 09:35:28;;;;;;;12.73;9.53;;;;;;;10.73;47.91;100734.66;4944635;28;21104;-82
2023/01/31 09:37:53;;;;;;;11.53;9.00;;;;;;;11.06;47.34;100726.94;4943760;29;20415;-82
2023/01/31 09:40:23;;;;;;;11.67;8.90;;;;;;;11.13;46.83;100731.94;4942466;28;20438;-84
2023/01/31 09:42:50;;;;;;;11.10;8.82;;;;;;;11.24;46.70;100730.47;4941553;28;20410;-82
2023/01/31 09:45:28;;;;;;;13.07;9.43;;;;;;;11.41;46.14;100726.16;4957980;28;20889;-82
2023/01/31 09:47:56;;;;;;;10.82;8.25;;;;;;;11.23;46.23;100726.16;4937510;29;20450;-82
2023/01/31 09:50:26;;;;;;;10.55;8.80;;;;;;;11.06;46.80;100739.25;4937240;29;20420;-82
2023/01/31 09:52:52;;;;;;;10.55;8.70;;;;;;;10.51;47.86;100740.03;4930796;29;20407;-81
2023/01/31 09:55:23;;;;;;;14.77;9.88;;;;;;;9.96;49.31;100737.16;4933202;29;20768;-83
2023/01/31 09:58:01;;;;;;;14.40;10.63;;;;;;;9.47;50.74;100740.09;4941312;29;20463;-85
2023/01/31 10:00:32;;;;;;;10.80;8.02;;;;;;;9.16;51.65;100744.88;4959446;28;20437;-82
2023/01/31 10:03:39;;;;;;;12.13;8.65;;;;;;;9.09;52.02;100754.72;4941999;29;21031;-83
2023/01/31 10:06:20;;;;;;;13.65;8.30;;;;;;;8.78;52.97;100755.06;4936089;28;20460;-81
2023/01/31 10:09:09;;;;;;;10.85;7.55;;;;;;;8.31;54.26;100760.25;4911020;29;20419;-81
2023/01/31 10:11:40;;;;;;;13.50;8.65;;;;;;;8.05;55.14;100764.66;4913178;29;20892;-83
2023/01/31 10:14:32;;;;;;;11.53;7.53;;;;;;;7.92;55.29;100765.97;4930261;28;20453;-82
2023/01/31 10:17:18;;;;;;;8.73;6.28;;;;;;;7.61;55.99;100768.75;4944899;29;20492;-82
2023/01/31 10:19:46;;;;;;;10.05;6.95;;;;;;;7.31;57.02;100777.53;4946900;29;20393;-83
2023/01/31 10:22:35;;;;;;;10.07;6.70;;;;;;;6.97;57.87;100785.56;4945504;29;20421;-82
2023/01/31 10:25:19;;;;;;;9.10;5.68;;;;;;;6.82;58.67;100783.38;4947617;28;20232;-82
2023/01/31 10:27:56;;;;;;;10.18;6.70;;;;;;;6.70;58.75;100779.38;4939760;29;20289;-81
2023/01/31 10:30:26;;;;;;;6.93;4.30;;;;;;;6.58;59.11;100777.13;4938978;28;20277;-81
2023/01/31 10:32:58;;;;;;;5.88;3.70;;;;;;;6.44;59.44;100780.13;4936182;29;20221;-81
2023/01/31 10:35:38;;;;;;;9.77;5.15;;;;;;;6.24;59.86;100778.06;4938018;29;20251;-80
2023/01/31 10:38:15;;;;;;;6.57;4.43;;;;;;;6.08;60.54;100768.94;4938263;28;20528;-80
2023/01/31 10:40:44;;;;;;;7.85;4.65;;;;;;;5.97;61.03;100754.41;4935411;29;20185;-80
2023/01/31 10:43:19;;;;;;;7.10;4.78;;;;;;;5.91;61.26;100746.75;4931814;29;20186;-80
2023/01/31 10:45:45;;;;;;;10.43;5.32;;;;;;;5.85;61.29;100743.41;4934745;29;20193;-81
2023/01/31 10:48:20;;;;;;;6.10;4.50;;;;;;;5.78;61.67;100742.72;4933653;28;20189;-80
2023/01/31 10:51:32;;;;;;;6.40;4.80;;;;;;;5.70;61.42;100752.50;4936518;29;20642;-80
2023/01/31 10:54:17;;;;;;;6.15;4.07;;;;;;;5.62;61.26;100762.25;4930976;29;20695;-80
2023/01/31 10:56:47;;;;;;;7.20;5.47;;;;;;;5.61;61.48;100768.34;4934108;29;20289;-80
2023/01/31 10:59:26;;;;;;;6.43;4.50;;;;;;;5.68;61.81;100781.19;4936623;28;20205;-81
2023/01/31 11:01:55;;;;;;;8.63;5.82;;;;;;;5.75;61.39;100787.97;4936180;29;20200;-80
2023/01/31 11:04:40;;;;;;;7.50;5.63;;;;;;;5.89;61.64;100782.41;4938023;29;20258;-80
2023/01/31 11:07:08;;;;;;;12.75;5.97;;;;;;;6.04;61.33;100778.56;4949888;28;20292;-80
2023/01/31 11:09:42;;;;;;;7.60;5.95;;;;;;;6.20;61.31;100768.59;4935722;29;20261;-80
2023/01/31 11:12:09;;;;;;;11.02;5.65;;;;;;;6.30;60.74;100771.81;4956128;28;20209;-80
2023/01/31 11:14:51;;;;;;;8.52;5.72;;;;;;;6.33;60.64;100759.53;4935352;29;20933;-80
2023/01/31 11:17:24;;;;;;;9.30;5.07;;;;;;;6.33;60.25;100749.09;4936758;29;20665;-80
2023/01/31 11:20:00;;;;;;;7.85;3.85;;;;;;;6.31;60.54;100744.81;4936070;29;20482;-81
2023/01/31 11:22:38;;;;;;;6.22;4.85;;;;;;;6.30;60.89;100743.97;4937040;29;20558;-80
2023/01/31 11:25:05;;;;;;;4.82;3.33;;;;;;;6.32;60.69;100747.41;4938117;28;20248;-80
2023/01/31 11:27:42;;;;;;;10.57;5.45;;;;;;;6.37;60.80;100761.19;4935293;29;20177;-80
2023/01/31 11:30:26;;;;;;;8.25;4.55;;;;;;;6.48;60.51;100753.06;4935323;29;20189;-80
2023/01/31 11:32:54;;;;;;;9.83;6.13;;;;;;;6.62;60.88;100750.03;4949081;28;20412;-80
2023/01/31 11:35:25;;;;;;;7.88;5.18;;;;;;;6.79;60.63;100752.16;4935767;29;20469;-81
2023/01/31 11:38:05;;;;;;;7.68;5.38;;;;;;;6.89;59.93;100753.59;4928508;29;20265;-80
2023/01/31 11:40:36;;;;;;;6.20;4.65;;;;;;;6.91;59.49;100748.31;4935307;29;20236;-80
2023/01/31 11:43:06;;;;;;;7.53;5.32;;;;;;;6.87;59.55;100745.78;4935089;29;20273;-81
2023/01/31 11:45:36;;;;;;;7.88;5.45;;;;;;;6.84;59.18;100745.88;4946728;28;20268;-81
2023/01/31 11:48:18;;;;;;;7.75;5.00;;;;;;;6.77;59.26;100731.28;4931595;29;20399;-80
2023/01/31 11:50:54;;;;;;;8.60;5.25;;;;;;;6.79;58.96;100732.09;4933257;29;20255;-81
2023/01/31 11:53:28;;;;;;;7.18;4.82;;;;;;;6.90;59.13;100728.31;4935697;29;20189;-80
2023/01/31 11:56:00;;;;;;;7.45;4.50;;;;;;;6.97;58.49;100722.88;4951003;28;20197;-81
2023/01/31 11:58:36;;;;;;;9.43;5.15;;;;;;;6.99;58.37;100714.97;4931687;29;20862;-80
2023/01/31 12:01:13;;;;;;;6.57;5.88;;;;;;;6.98;58.74;100708.03;4930679;29;20185;-80
2023/01/31 12:03:47;;;;;;;5.88;3.17;;;;;;;7.01;58.42;100682.66;4937977;29;20162;-80
2023/01/31 12:06:26;;;;;;;5.65;5.03;;;;;;;7.09;58.40;100685.03;4938060;29;20206;-81
2023/01/31 12:08:57;;;;;;;9.07;5.35;;;;;;;7.26;58.29;100664.47;4949379;28;20185;-80
2023/01/31 12:11:29;;;;;;;9.23;4.97;;;;;;;7.52;57.52;100665.34;4934002;29;20182;-81
2023/01/31 12:14:21;;;;;;;7.88;3.50;;;;;;;7.68;56.86;100661.28;4937159;29;20193;-80
2023/01/31 12:16:48;;;;;;;5.88;5.18;;;;;;;7.70;56.86;100659.47;4939308;29;20668;-80